Marshall, IN (47859)

12:55 AM EDT on November 01, 2014 (GMT -0400)
KINROCKV2 | Change Station
CLOSE
Current Station
Personal Weather Station
Location: Rockville, IN
Elevation: 702 ft
Nearby Weather Stations
Active Advisory: Freeze Warning

Elev 702 ft 39.77 °N, 87.22 °W | Updated 28 minutes ago

Overcast
Overcast
35.1 °F
Feels Like 28 °F
N
9.0
Wind Variable Wind from NNE
Gusts 13.0 mph

Today
High -- | Low -- °F
--% Chance of Precip.
Yesterday
High -- | Low -- °F
Precip. -- in
8:17 AM 6:46 PM
Waxing Gibbous, 62% visible
Pressure 30.24 in
Visibility 10.0 miles
Clouds Mostly Cloudy 1400 ft
Mostly Cloudy 2100 ft
Overcast 5000 ft
Windchill 28 °F
Dew Point 34 °F
Humidity 94%
Rainfall 0.00 in
Snow Depth Not available.
UV 0 out of 12
Pollen .30 out of 12
Air Quality Not available.
Flu Activity Not available.
METAR KDNV 010435Z AUTO 36013G20KT 10SM BKN014 BKN021 OVC050 01/M01 A3024 RMK AO2 T00071011

More Conditions Fewer Conditions

Pressure 30.24 in
Visibility 10.0 miles
Clouds Mostly Cloudy 1400 ft
Mostly Cloudy 2100 ft
Overcast 5000 ft
Windchill 28 °F
Dew Point 34 °F
Humidity 94%
Rainfall 0.00 in
Snow Depth Not available.
UV 0 out of 12
Pollen .30 out of 12
Air Quality Not available.
Flu Activity Not available.
METAR KDNV 010435Z AUTO 36013G20KT 10SM BKN014 BKN021 OVC050 01/M01 A3024 RMK AO2 T00071011

More Conditions Fewer Conditions

10-Day Weather Forecast

Almanac

Astronomy

Nov. 01, 2014 Rise Set
Actual Time
Civil Twilight
Nautical Twilight
Astronomical Twilight
Moon
Length of Visible Light
Length of Day
Tomorrow will be .
, % of the Moon is Illuminated

Today's Extremes

State Highs State Lows

Community

WunderPhotos

Upload Photos

1,766,854 photos uploaded!

WunderBlogs® & News

Nearby

Air Quality

  Air Quality AQ Index Pollutant
Not available.

Snow Depth

Station Depth Elevation

Earthquake Activity

City Distance Mag. Time & Date
Minimum magnitude displayed is 2.5.

Coastal Water Temperatures

Place Temperature

Nearby Weather Stations